Time;durP1;ratioP1;P1;durP2;ratioP2;P2;SDS_P1;SDS_P2;PMS_P1;PMS_P2;Temp;Humidity;BMP_temperature;BMP_pressure;BME280_temperature;BME280_humidity;BME280_pressure;Samples;Min_cycle;Max_cycle;Signal;HPM_P1;HPM_P2
2023/08/02 00:00:57;;;;;;;;;;;;;;;23.01;50.96;94008.16;5188639;22;20383;-80
2023/08/02 00:02:58;;;;;;;;;;;;;;;23.10;50.70;94005.81;5216619;22;19965;-78
2023/08/02 00:05:00;;;;;;;;;;;;;;;23.18;50.60;94005.38;5215420;22;19925;-78
2023/08/02 00:07:03;;;;;;;;;;;;;;;23.23;50.80;94000.09;5188012;22;20302;-79
2023/08/02 00:09:04;;;;;;;;;;;;;;;23.16;50.89;93994.13;5216642;22;19925;-81
2023/08/02 00:11:14;;;;;;;;;;;;;;;23.16;50.80;94004.81;5216464;22;19918;-79
2023/08/02 00:13:15;;;;;;;;;;;;;;;23.23;50.73;94004.59;5187085;22;19927;-82
2023/08/02 00:15:20;;;;;;;;;;;;;;;23.30;50.43;94015.91;5214277;22;19926;-79
2023/08/02 00:17:22;;;;;;;;;;;;;;;23.37;50.49;94018.34;5217437;22;20398;-78
2023/08/02 00:19:23;;;;;;;;;;;;;;;23.39;50.43;94013.56;5216355;22;19918;-82
2023/08/02 00:21:25;;;;;;;;;;;;;;;23.43;49.92;94015.47;5217631;22;19919;-80
2023/08/02 00:23:26;;;;;;;;;;;;;;;23.53;50.01;94017.41;5195486;22;19915;-79
2023/08/02 00:25:28;;;;;;;;;;;;;;;23.57;49.83;94004.34;5223786;22;19926;-81
2023/08/02 00:27:30;;;;;;;;;;;;;;;23.62;49.43;94007.84;5226837;22;19949;-79
2023/08/02 00:29:34;;;;;;;;;;;;;;;23.67;49.09;94017.78;5229891;22;20324;-78
2023/08/02 00:31:35;;;;;;;;;;;;;;;23.70;49.04;94009.22;5228161;22;20374;-80
2023/08/02 00:33:37;;;;;;;;;;;;;;;23.64;49.52;94010.25;5217417;22;19929;-81
2023/08/02 00:35:50;;;;;;;;;;;;;;;23.58;49.51;94008.63;5188925;22;20327;-80
2023/08/02 00:37:52;;;;;;;;;;;;;;;23.50;50.06;94021.41;5218584;22;19972;-78
2023/08/02 00:39:53;;;;;;;;;;;;;;;23.49;50.02;94014.44;5218670;22;19915;-80
2023/08/02 00:41:55;;;;;;;;;;;;;;;23.55;49.99;94011.81;5217634;22;19925;-83
2023/08/02 00:43:57;;;;;;;;;;;;;;;23.47;49.93;94015.78;5215644;22;19919;-79
2023/08/02 00:45:58;;;;;;;;;;;;;;;23.41;50.21;94016.78;5187836;22;20003;-80
2023/08/02 00:48:00;;;;;;;;;;;;;;;23.39;50.30;94019.72;5216206;22;19914;-80
2023/08/02 00:50:02;;;;;;;;;;;;;;;23.44;50.22;94018.94;5215799;22;20432;-79
2023/08/02 00:52:04;;;;;;;;;;;;;;;23.49;50.09;94019.78;5189234;22;19915;-79
2023/08/02 00:54:06;;;;;;;;;;;;;;;23.56;49.93;94014.22;5215025;22;20364;-80
2023/08/02 00:56:08;;;;;;;;;;;;;;;23.60;49.52;94009.97;5216697;22;19922;-79
2023/08/02 00:58:09;;;;;;;;;;;;;;;23.63;49.70;94006.78;5216086;22;19921;-79
2023/08/02 01:00:12;;;;;;;;;;;;;;;23.64;49.24;94008.41;5215891;22;19921;-80
2023/08/02 01:02:13;;;;;;;;;;;;;;;23.62;49.40;94009.72;5215577;22;19959;-79
2023/08/02 01:04:15;;;;;;;;;;;;;;;23.60;49.30;94004.63;5214612;22;20195;-80
2023/08/02 01:06:22;;;;;;;;;;;;;;;23.58;49.62;94001.41;5215125;22;20388;-81
2023/08/02 01:08:32;;;;;;;;;;;;;;;23.58;49.60;94000.63;5214420;22;19918;-80
2023/08/02 01:10:40;;;;;;;;;;;;;;;23.58;49.67;94009.44;5187326;22;19967;-80
2023/08/02 01:12:43;;;;;;;;;;;;;;;23.57;49.80;94007.00;5212963;22;19990;-80
2023/08/02 01:14:47;;;;;;;;;;;;;;;23.38;50.23;94011.94;5184743;22;20093;-79
2023/08/02 01:16:56;;;;;;;;;;;;;;;23.24;50.94;94006.22;5188575;22;19927;-78
2023/08/02 01:18:59;;;;;;;;;;;;;;;23.22;50.79;94003.81;5215443;22;19929;-80
2023/08/02 01:21:01;;;;;;;;;;;;;;;23.25;51.02;93997.97;5188097;22;20188;-80
2023/08/02 01:23:02;;;;;;;;;;;;;;;23.30;51.08;93992.66;5215651;22;19918;-81
2023/08/02 01:25:04;;;;;;;;;;;;;;;23.24;51.03;94001.69;5190407;22;20030;-79
2023/08/02 01:27:09;;;;;;;;;;;;;;;23.22;50.70;94003.81;5215545;22;20015;-79
2023/08/02 01:29:12;;;;;;;;;;;;;;;23.05;51.48;94011.13;5190111;22;20398;-80
2023/08/02 01:31:14;;;;;;;;;;;;;;;23.07;51.24;94009.03;5164947;22;19915;-80
2023/08/02 01:33:16;;;;;;;;;;;;;;;23.09;51.28;93999.69;5215439;22;19922;-79
2023/08/02 01:35:17;;;;;;;;;;;;;;;23.17;51.53;93998.44;5188548;22;19930;-79
2023/08/02 01:37:19;;;;;;;;;;;;;;;23.23;51.27;93992.06;5191222;22;19946;-79
2023/08/02 01:39:20;;;;;;;;;;;;;;;23.27;51.23;93987.84;5203897;22;19915;-78
2023/08/02 01:41:22;;;;;;;;;;;;;;;23.31;51.05;93988.09;5215101;22;19977;-80
2023/08/02 01:43:25;;;;;;;;;;;;;;;23.35;51.20;93991.09;5214967;22;20380;-77
2023/08/02 01:45:26;;;;;;;;;;;;;;;23.37;51.03;93984.41;5214348;22;19919;-80
2023/08/02 01:47:28;;;;;;;;;;;;;;;23.39;50.87;93994.84;5215126;22;19930;-79
2023/08/02 01:49:30;;;;;;;;;;;;;;;23.38;51.07;93983.38;5213793;22;20017;-78
2023/08/02 01:51:31;;;;;;;;;;;;;;;23.36;51.09;93982.00;5214753;22;20008;-81
2023/08/02 01:53:34;;;;;;;;;;;;;;;23.36;51.39;93982.00;5189599;22;20267;-81
2023/08/02 01:55:36;;;;;;;;;;;;;;;23.34;51.45;93981.44;5216456;22;19964;-78
2023/08/02 01:57:37;;;;;;;;;;;;;;;23.29;51.68;93987.56;5189483;22;20359;-79
2023/08/02 01:59:39;;;;;;;;;;;;;;;23.26;51.66;93982.72;5217420;22;19955;-80
2023/08/02 02:01:41;;;;;;;;;;;;;;;23.25;51.80;93983.78;5228672;22;19919;-79
2023/08/02 02:03:43;;;;;;;;;;;;;;;23.24;51.97;93982.97;5167695;22;19919;-79
2023/08/02 02:05:51;;;;;;;;;;;;;;;23.24;51.63;93985.66;5194580;22;19919;-78
2023/08/02 02:07:53;;;;;;;;;;;;;;;23.25;51.61;93986.44;5208886;22;19915;-78
2023/08/02 02:09:55;;;;;;;;;;;;;;;23.25;51.74;93984.59;5236298;22;19902;-78
2023/08/02 02:11:56;;;;;;;;;;;;;;;23.25;51.80;93983.78;5123880;22;2531116;-78
2023/08/02 02:13:59;;;;;;;;;;;;;;;23.25;51.92;93986.44;5236675;22;19962;-78
2023/08/02 02:16:00;;;;;;;;;;;;;;;23.22;51.69;93993.13;5184100;22;20240;-76
2023/08/02 02:18:02;;;;;;;;;;;;;;;23.17;52.22;93987.75;5208443;22;19926;-79
2023/08/02 02:20:06;;;;;;;;;;;;;;;23.16;52.24;93994.13;5230661;22;19960;-78
2023/08/02 02:22:08;;;;;;;;;;;;;;;23.16;51.92;93999.47;5232065;22;19918;-78
2023/08/02 02:24:10;;;;;;;;;;;;;;;23.18;52.01;94007.25;5206957;22;19998;-79
2023/08/02 02:26:11;;;;;;;;;;;;;;;23.18;51.94;94001.91;5206031;22;19975;-80
2023/08/02 02:28:13;;;;;;;;;;;;;;;23.18;52.24;94008.03;5233659;22;19922;-79
2023/08/02 02:30:15;;;;;;;;;;;;;;;23.16;52.62;93998.66;5217253;22;19938;-81
2023/08/02 02:32:17;;;;;;;;;;;;;;;23.11;52.53;93999.44;5217188;22;20006;-79
2023/08/02 02:34:19;;;;;;;;;;;;;;;23.06;52.58;94010.09;5218104;22;19986;-79
2023/08/02 02:36:21;;;;;;;;;;;;;;;23.05;52.22;94003.13;5166585;23;19938;-79
2023/08/02 02:38:22;;;;;;;;;;;;;;;23.05;52.62;94008.47;5221287;22;19997;-80
2023/08/02 02:40:24;;;;;;;;;;;;;;;23.08;52.51;94010.63;5221957;22;19915;-80
2023/08/02 02:42:25;;;;;;;;;;;;;;;23.06;52.65;94010.88;5218536;22;20265;-80
2023/08/02 02:44:41;;;;;;;;;;;;;;;22.73;52.96;94009.19;5190871;22;20008;-78
2023/08/02 02:46:43;;;;;;;;;;;;;;;22.51;53.69;94019.91;5222526;22;19915;-76
2023/08/02 02:48:45;;;;;;;;;;;;;;;22.51;53.93;94019.09;5223683;22;20016;-79
2023/08/02 02:50:46;;;;;;;;;;;;;;;22.55;54.07;94021.03;5226231;22;19965;-79
2023/08/02 02:52:48;;;;;;;;;;;;;;;22.61;54.03;94013.88;5215902;22;19945;-78
2023/08/02 02:54:49;;;;;;;;;;;;;;;22.57;54.09;94020.78;5215255;22;19919;-79
2023/08/02 02:56:51;;;;;;;;;;;;;;;22.57;54.41;94026.91;5187319;22;20104;-79
2023/08/02 02:58:53;;;;;;;;;;;;;;;22.59;54.39;94040.81;5214910;22;20230;-80
2023/08/02 03:00:56;;;;;;;;;;;;;;;22.52;54.55;94034.03;5212849;22;20473;-78
2023/08/02 03:02:58;;;;;;;;;;;;;;;22.51;54.79;94043.13;5214283;22;20111;-77
2023/08/02 03:04:59;;;;;;;;;;;;;;;22.45;54.85;94044.91;5213522;22;19926;-79
2023/08/02 03:07:03;;;;;;;;;;;;;;;22.35;55.29;94044.78;5213327;22;20122;-80
2023/08/02 03:09:05;;;;;;;;;;;;;;;22.37;55.37;94042.69;5214633;22;19937;-79
2023/08/02 03:11:06;;;;;;;;;;;;;;;22.33;55.17;94042.38;5187370;22;19922;-81
2023/08/02 03:13:08;;;;;;;;;;;;;;;22.29;55.17;94038.59;5214927;22;19926;-80
2023/08/02 03:15:09;;;;;;;;;;;;;;;22.28;55.21;94032.47;5213372;22;20307;-79
2023/08/02 03:17:12;;;;;;;;;;;;;;;22.34;55.33;94035.19;5186502;22;19946;-78
2023/08/02 03:19:14;;;;;;;;;;;;;;;22.40;55.08;94032.31;5213597;22;19944;-80
2023/08/02 03:21:15;;;;;;;;;;;;;;;22.45;54.95;94035.03;5187275;22;19949;-79
2023/08/02 03:23:17;;;;;;;;;;;;;;;22.49;54.95;94041.50;5214508;22;19918;-80
2023/08/02 03:25:19;;;;;;;;;;;;;;;22.53;55.03;94035.69;5213628;22;19946;-79
2023/08/02 03:27:20;;;;;;;;;;;;;;;22.58;54.76;94036.53;5214598;22;19949;-80
2023/08/02 03:29:22;;;;;;;;;;;;;;;22.63;54.37;94041.94;5186439;22;19926;-80
2023/08/02 03:31:24;;;;;;;;;;;;;;;22.37;55.06;94040.84;5184694;22;19954;-80
2023/08/02 03:33:26;;;;;;;;;;;;;;;22.21;55.61;94041.66;5186881;22;20456;-78
2023/08/02 03:35:27;;;;;;;;;;;;;;;22.14;55.76;94046.38;5187626;22;19916;-79
2023/08/02 03:37:29;;;;;;;;;;;;;;;22.16;55.88;94046.94;5186130;22;20020;-80
2023/08/02 03:39:30;;;;;;;;;;;;;;;22.18;55.55;94044.84;5213551;22;20001;-80
2023/08/02 03:41:32;;;;;;;;;;;;;;;22.12;55.94;94049.28;5215123;22;19985;-80
2023/08/02 03:43:34;;;;;;;;;;;;;;;22.17;55.77;94049.34;5215049;22;20459;-80
2023/08/02 03:45:35;;;;;;;;;;;;;;;22.14;55.36;94057.03;5213368;22;19914;-79
2023/08/02 03:47:37;;;;;;;;;;;;;;;22.02;55.17;94055.28;5188247;22;20350;-80
2023/08/02 03:49:38;;;;;;;;;;;;;;;21.92;55.76;94054.31;5214974;22;19922;-80
2023/08/02 03:51:40;;;;;;;;;;;;;;;21.96;55.63;94050.94;5227612;22;20216;-80
2023/08/02 03:53:42;;;;;;;;;;;;;;;22.05;55.45;94046.78;5196226;22;19915;-81
2023/08/02 03:55:43;;;;;;;;;;;;;;;22.11;55.18;94046.84;5214579;22;19918;-79
2023/08/02 03:57:46;;;;;;;;;;;;;;;22.22;55.12;94048.59;5214243;22;19944;-79
2023/08/02 03:59:48;;;;;;;;;;;;;;;22.30;55.08;94048.19;5214317;22;19914;-81
2023/08/02 04:01:49;;;;;;;;;;;;;;;22.40;54.50;94050.19;5185861;22;20375;-80
2023/08/02 04:03:52;;;;;;;;;;;;;;;22.47;54.52;94056.16;5214189;22;19997;-81
2023/08/02 04:05:54;;;;;;;;;;;;;;;22.53;54.24;94049.81;5215440;22;19940;-80
2023/08/02 04:07:56;;;;;;;;;;;;;;;22.55;54.10;94053.03;5218626;22;20273;-79
2023/08/02 04:09:57;;;;;;;;;;;;;;;22.59;54.34;94053.38;5199445;22;19915;-79
2023/08/02 04:11:59;;;;;;;;;;;;;;;22.64;54.33;94053.41;5230979;22;19965;-79
2023/08/02 04:14:00;;;;;;;;;;;;;;;22.57;54.28;94052.81;5226616;22;19938;-80
2023/08/02 04:16:02;;;;;;;;;;;;;;;22.40;54.72;94053.66;5187127;22;20014;-80
2023/08/02 04:18:04;;;;;;;;;;;;;;;22.29;55.16;94057.28;5213552;22;19926;-82
2023/08/02 04:20:07;;;;;;;;;;;;;;;22.05;55.91;94057.47;5186413;22;19915;-81
2023/08/02 04:22:09;;;;;;;;;;;;;;;21.88;56.22;94048.69;5187327;22;19946;-82
2023/08/02 04:24:12;;;;;;;;;;;;;;;21.87;56.27;94047.84;5187408;22;19981;-82
2023/08/02 04:26:14;;;;;;;;;;;;;;;21.97;56.67;94047.22;5215691;22;20043;-85
2023/08/02 04:28:15;;;;;;;;;;;;;;;22.11;56.22;94052.97;5216002;22;19919;-79
2023/08/02 04:30:17;;;;;;;;;;;;;;;22.25;55.60;94048.16;5187562;22;19926;-79
2023/08/02 04:32:19;;;;;;;;;;;;;;;22.31;55.58;94041.81;5186047;22;19990;-80
2023/08/02 04:34:20;;;;;;;;;;;;;;;22.41;55.44;94055.28;5161695;22;19915;-80
2023/08/02 04:36:22;;;;;;;;;;;;;;;22.56;55.05;94045.84;5215805;22;19919;-81
2023/08/02 04:38:23;;;;;;;;;;;;;;;22.64;54.40;94050.75;5189248;22;20314;-81
2023/08/02 04:40:25;;;;;;;;;;;;;;;22.72;54.26;94044.97;5190700;22;20426;-82
2023/08/02 04:42:27;;;;;;;;;;;;;;;22.82;53.54;94047.75;5189632;22;19919;-81
2023/08/02 04:44:29;;;;;;;;;;;;;;;22.90;53.38;94049.94;5216903;22;20341;-81
2023/08/02 04:46:30;;;;;;;;;;;;;;;22.98;53.93;94042.56;5215248;22;19921;-80
2023/08/02 04:48:32;;;;;;;;;;;;;;;23.01;54.05;94045.56;5188233;22;20074;-80
2023/08/02 04:50:34;;;;;;;;;;;;;;;23.06;53.46;94042.16;5188785;22;19925;-81
2023/08/02 04:52:38;;;;;;;;;;;;;;;23.08;53.33;94046.19;5216477;22;19941;-81
2023/08/02 04:54:42;;;;;;;;;;;;;;;23.12;53.41;94051.78;5190264;22;20270;-81
2023/08/02 04:56:44;;;;;;;;;;;;;;;23.14;53.28;94055.03;5217034;22;20259;-81
2023/08/02 04:58:46;;;;;;;;;;;;;;;23.17;53.02;94065.22;5216938;22;19919;-84
2023/08/02 05:00:47;;;;;;;;;;;;;;;23.06;53.40;94058.19;5189204;22;20051;-81
2023/08/02 05:02:49;;;;;;;;;;;;;;;23.02;53.58;94067.75;5163677;23;19919;-80
2023/08/02 05:04:52;;;;;;;;;;;;;;;22.86;53.81;94069.41;5215469;22;20336;-82
2023/08/02 05:06:54;;;;;;;;;;;;;;;22.70;54.36;94065.78;5216143;22;20194;-81
2023/08/02 05:08:56;;;;;;;;;;;;;;;22.71;54.38;94062.03;5217457;22;19990;-82
2023/08/02 05:10:57;;;;;;;;;;;;;;;22.80;54.01;94055.22;5217194;22;20271;-82
2023/08/02 05:13:04;;;;;;;;;;;;;;;22.87;53.77;94050.47;5188576;22;19915;-81
2023/08/02 05:15:07;;;;;;;;;;;;;;;22.95;53.80;94053.72;5215552;22;19937;-81
2023/08/02 05:17:08;;;;;;;;;;;;;;;22.98;53.74;94056.72;5189789;22;19919;-81
2023/08/02 05:19:10;;;;;;;;;;;;;;;22.96;54.11;94063.38;5214818;22;19923;-80
2023/08/02 05:21:15;;;;;;;;;;;;;;;22.96;53.52;94068.72;5216588;22;20191;-81
2023/08/02 05:23:17;;;;;;;;;;;;;;;22.88;53.56;94078.78;5216382;22;20010;-83
2023/08/02 05:25:19;;;;;;;;;;;;;;;22.81;53.53;94080.84;5215038;22;19965;-80
2023/08/02 05:27:20;;;;;;;;;;;;;;;22.80;53.89;94079.25;5191357;22;19918;-82
2023/08/02 05:29:22;;;;;;;;;;;;;;;22.86;53.90;94072.88;5189880;22;20425;-81
2023/08/02 05:31:24;;;;;;;;;;;;;;;22.87;53.56;94082.50;5189334;22;19919;-80
2023/08/02 05:33:25;;;;;;;;;;;;;;;22.82;54.12;94079.81;5215884;22;19918;-82
2023/08/02 05:35:29;;;;;;;;;;;;;;;22.87;53.72;94079.84;5190298;22;19955;-83
2023/08/02 05:37:31;;;;;;;;;;;;;;;22.85;53.97;94089.97;5190317;22;20158;-79
2023/08/02 05:39:33;;;;;;;;;;;;;;;22.81;54.12;94098.72;5217460;22;19989;-81
2023/08/02 05:41:34;;;;;;;;;;;;;;;22.81;53.61;94096.06;5190236;22;19915;-80
2023/08/02 05:43:36;;;;;;;;;;;;;;;22.87;53.51;94095.06;5190244;22;19915;-79
2023/08/02 05:45:40;;;;;;;;;;;;;;;22.86;53.68;94096.91;5190054;22;20314;-85
2023/08/02 05:47:41;;;;;;;;;;;;;;;22.88;53.87;94105.47;5219144;22;19923;-80
2023/08/02 05:49:44;;;;;;;;;;;;;;;22.94;53.82;94105.56;5217816;22;19918;-79
2023/08/02 05:51:46;;;;;;;;;;;;;;;22.96;54.28;94111.44;5217081;22;19914;-81
2023/08/02 05:53:48;;;;;;;;;;;;;;;22.98;53.84;94114.69;5216969;22;19930;-82
2023/08/02 05:55:50;;;;;;;;;;;;;;;23.06;53.61;94112.41;5217352;22;19987;-82
2023/08/02 05:57:51;;;;;;;;;;;;;;;23.20;53.54;94112.00;5190175;22;19919;-80
2023/08/02 05:59:53;;;;;;;;;;;;;;;23.42;53.10;94114.63;5217368;22;20306;-83
2023/08/02 06:01:55;;;;;;;;;;;;;;;23.57;52.79;94109.41;5217827;22;19994;-81
2023/08/02 06:03:56;;;;;;;;;;;;;;;23.63;52.43;94108.38;5219709;22;20302;-81
2023/08/02 06:05:58;;;;;;;;;;;;;;;23.80;52.11;94116.31;5197532;22;19915;-80
2023/08/02 06:08:00;;;;;;;;;;;;;;;24.01;51.45;94114.59;5218326;22;20334;-80
2023/08/02 06:10:02;;;;;;;;;;;;;;;24.22;50.73;94112.88;5218245;22;19919;-83
2023/08/02 06:12:05;;;;;;;;;;;;;;;24.30;50.61;94111.56;5218173;22;20008;-84
2023/08/02 06:14:06;;;;;;;;;;;;;;;23.90;51.14;94119.06;5191320;22;19916;-80
2023/08/02 06:16:08;;;;;;;;;;;;;;;23.62;51.57;94120.16;5188676;22;19931;-80
2023/08/02 06:18:10;;;;;;;;;;;;;;;23.56;52.21;94123.03;5216015;22;19918;-81
2023/08/02 06:20:12;;;;;;;;;;;;;;;23.46;52.10;94132.56;5216518;22;19918;-81
2023/08/02 06:22:15;;;;;;;;;;;;;;;23.55;51.78;94124.88;5216810;22;19922;-81
2023/08/02 06:24:17;;;;;;;;;;;;;;;23.63;51.90;94119.09;5217291;22;20208;-82
2023/08/02 06:26:19;;;;;;;;;;;;;;;23.81;51.17;94117.13;5217615;22;19980;-82
2023/08/02 06:28:23;;;;;;;;;;;;;;;24.08;50.71;94123.19;5218168;22;19942;-81
2023/08/02 06:30:24;;;;;;;;;;;;;;;24.40;50.20;94114.31;5215924;22;19919;-82
2023/08/02 06:32:26;;;;;;;;;;;;;;;24.57;49.51;94111.47;5216800;22;19918;-81
2023/08/02 06:34:28;;;;;;;;;;;;;;;24.77;49.21;94108.09;5215073;22;19918;-81
2023/08/02 06:36:29;;;;;;;;;;;;;;;24.94;48.94;94110.56;5215632;22;19914;-82
2023/08/02 06:38:32;;;;;;;;;;;;;;;25.03;48.64;94111.66;5215977;22;19918;-81
2023/08/02 06:40:34;;;;;;;;;;;;;;;25.14;48.33;94104.44;5188685;22;19919;-82
2023/08/02 06:42:35;;;;;;;;;;;;;;;25.14;48.40;94112.47;5216163;22;19990;-83
2023/08/02 06:44:37;;;;;;;;;;;;;;;25.09;48.37;94104.44;5214796;22;19918;-83
2023/08/02 06:46:40;;;;;;;;;;;;;;;25.01;48.67;94110.31;5215279;22;19915;-80
2023/08/02 06:48:42;;;;;;;;;;;;;;;25.02;49.14;94093.97;5215420;22;19922;-80
2023/08/02 06:50:43;;;;;;;;;;;;;;;25.16;48.62;94093.47;5215615;22;19918;-82
2023/08/02 06:52:47;;;;;;;;;;;;;;;25.13;48.23;94100.16;5215834;22;19915;-84
2023/08/02 06:54:52;;;;;;;;;;;;;;;25.13;48.42;94095.59;5187841;22;19923;-82
2023/08/02 06:56:55;;;;;;;;;;;;;;;25.04;49.12;94101.75;5215088;22;19979;-82
2023/08/02 06:58:56;;;;;;;;;;;;;;;25.19;48.76;94096.44;5188668;22;20066;-84
2023/08/02 07:00:58;;;;;;;;;;;;;;;25.25;48.72;94102.63;5214506;22;19921;-84
2023/08/02 07:03:00;;;;;;;;;;;;;;;25.35;48.15;94102.66;5216306;22;20231;-81
2023/08/02 07:05:02;;;;;;;;;;;;;;;25.44;48.23;94100.25;5189485;22;20448;-83
2023/08/02 07:07:05;;;;;;;;;;;;;;;25.54;48.11;94101.06;5189107;22;19919;-84
2023/08/02 07:09:06;;;;;;;;;;;;;;;25.54;47.96;94103.75;5216694;22;20227;-83
2023/08/02 07:11:08;;;;;;;;;;;;;;;25.62;47.92;94104.28;5216932;22;19942;-81
2023/08/02 07:13:16;;;;;;;;;;;;;;;25.60;48.02;94101.88;5189770;22;20299;-83
2023/08/02 07:15:18;;;;;;;;;;;;;;;25.60;48.13;94109.09;5214638;22;19929;-82
2023/08/02 07:17:20;;;;;;;;;;;;;;;25.41;48.72;94112.31;5216370;22;19915;-82
2023/08/02 07:19:22;;;;;;;;;;;;;;;25.03;49.52;94113.53;5214244;22;19926;-81
2023/08/02 07:21:24;;;;;;;;;;;;;;;25.15;49.70;94108.75;5216519;22;20280;-79
2023/08/02 07:23:26;;;;;;;;;;;;;;;25.17;49.97;94109.28;5215931;22;19915;-81
2023/08/02 07:25:28;;;;;;;;;;;;;;;25.46;49.41;94108.84;5215772;22;19943;-85
2023/08/02 07:27:31;;;;;;;;;;;;;;;25.74;48.61;94110.19;5216339;22;19915;-82
2023/08/02 07:29:32;;;;;;;;;;;;;;;25.33;49.55;94110.16;5188075;22;20186;-81
2023/08/02 07:31:35;;;;;;;;;;;;;;;25.43;49.34;94106.69;5215234;22;20018;-81
2023/08/02 07:33:36;;;;;;;;;;;;;;;25.57;49.22;94099.72;5214793;22;19914;-84
2023/08/02 07:35:38;;;;;;;;;;;;;;;25.87;48.59;94101.59;5187387;22;19925;-81
2023/08/02 07:37:39;;;;;;;;;;;;;;;26.00;48.14;94102.97;5188516;22;19966;-81
2023/08/02 07:39:41;;;;;;;;;;;;;;;26.04;48.12;94103.25;5215941;22;19926;-79
2023/08/02 07:41:45;;;;;;;;;;;;;;;26.17;47.66;94109.94;5190316;22;19915;-82
2023/08/02 07:43:47;;;;;;;;;;;;;;;26.08;48.16;94107.00;5216848;22;20302;-81
2023/08/02 07:45:49;;;;;;;;;;;;;;;26.18;48.14;94112.34;5216416;22;19929;-79
2023/08/02 07:47:51;;;;;;;;;;;;;;;26.04;48.77;94119.34;5217274;22;20530;-79
2023/08/02 07:49:53;;;;;;;;;;;;;;;26.11;48.63;94112.63;5191378;22;19974;-81
2023/08/02 07:51:55;;;;;;;;;;;;;;;25.97;49.12;94116.94;5220819;22;20264;-81
2023/08/02 07:53:56;;;;;;;;;;;;;;;25.88;49.37;94107.78;5218580;22;19984;-81
2023/08/02 07:56:01;;;;;;;;;;;;;;;26.16;48.61;94098.41;5217426;22;19958;-81
2023/08/02 07:58:04;;;;;;;;;;;;;;;26.36;48.46;94106.41;5217759;22;19923;-80
2023/08/02 08:00:07;;;;;;;;;;;;;;;26.68;47.80;94099.09;5217174;22;19993;-84
2023/08/02 08:02:08;;;;;;;;;;;;;;;27.02;46.79;94101.91;5190070;22;19991;-82
2023/08/02 08:04:10;;;;;;;;;;;;;;;26.76;46.92;94098.53;5219884;22;19949;-81
2023/08/02 08:06:12;;;;;;;;;;;;;;;26.78;47.15;94107.13;5203802;22;19953;-82
2023/08/02 08:08:14;;;;;;;;;;;;;;;26.87;46.89;94097.41;5207516;22;19943;-81
2023/08/02 08:10:16;;;;;;;;;;;;;;;26.93;46.81;94100.84;5234888;22;19918;-79
2023/08/02 08:12:18;;;;;;;;;;;;;;;27.04;46.33;94096.25;5207363;22;19914;-83
2023/08/02 08:14:19;;;;;;;;;;;;;;;27.06;46.47;94096.78;5235546;22;19926;-82
2023/08/02 08:16:21;;;;;;;;;;;;;;;27.28;45.67;94091.84;5206103;22;19919;-78
2023/08/02 08:18:23;;;;;;;;;;;;;;;27.45;45.49;94096.03;5182626;22;19930;-80
2023/08/02 08:20:24;;;;;;;;;;;;;;;27.32;45.32;94098.28;5235777;22;19918;-84
2023/08/02 08:22:29;;;;;;;;;;;;;;;27.33;45.71;94099.06;5207282;22;19947;-79
2023/08/02 08:24:30;;;;;;;;;;;;;;;27.30;45.74;94096.97;5208815;22;19950;-80
2023/08/02 08:26:32;;;;;;;;;;;;;;;27.31;45.84;94099.34;5207549;22;19942;-79
2023/08/02 08:28:34;;;;;;;;;;;;;;;27.42;45.19;94094.72;5236347;22;19926;-80
2023/08/02 08:30:35;;;;;;;;;;;;;;;27.50;45.11;94096.00;5206797;22;19965;-80
2023/08/02 08:32:38;;;;;;;;;;;;;;;27.73;44.42;94099.91;5234273;22;19935;-83
2023/08/02 08:34:39;;;;;;;;;;;;;;;27.55;43.79;94095.97;5235255;22;20031;-80
2023/08/02 08:36:42;;;;;;;;;;;;;;;27.73;43.52;94097.19;5199622;22;19921;-82
2023/08/02 08:38:44;;;;;;;;;;;;;;;27.80;43.74;94094.19;5166380;22;20439;-83
2023/08/02 08:40:52;;;;;;;;;;;;;;;27.84;43.82;94101.41;5164999;23;19994;-82
2023/08/02 08:42:54;;;;;;;;;;;;;;;27.26;44.88;94099.38;5190929;22;20222;-81
2023/08/02 08:44:56;;;;;;;;;;;;;;;27.23;44.81;94105.31;5217623;22;20009;-84
2023/08/02 08:47:00;;;;;;;;;;;;;;;27.61;43.30;94099.44;5216667;22;19967;-82
2023/08/02 08:49:03;;;;;;;;;;;;;;;27.94;41.61;94105.91;5216343;22;19964;-83
2023/08/02 08:51:05;;;;;;;;;;;;;;;27.95;41.49;94097.56;5190843;22;19922;-83
2023/08/02 08:53:08;;;;;;;;;;;;;;;28.06;41.04;94092.91;5192447;22;19941;-83
2023/08/02 08:55:10;;;;;;;;;;;;;;;28.22;40.71;94090.84;5190965;22;19919;-83
2023/08/02 08:57:12;;;;;;;;;;;;;;;28.41;40.81;94103.63;5191482;22;19916;-83
2023/08/02 08:59:13;;;;;;;;;;;;;;;28.41;39.82;94103.63;5219008;22;19919;-81
2023/08/02 09:01:15;;;;;;;;;;;;;;;28.19;37.92;94105.69;5216584;22;20022;-85
2023/08/02 09:03:16;;;;;;;;;;;;;;;28.17;38.14;94099.78;5190272;22;19918;-83
2023/08/02 09:05:21;;;;;;;;;;;;;;;27.98;38.12;94107.78;5216812;22;19957;-81
2023/08/02 09:07:23;;;;;;;;;;;;;;;28.03;36.98;94101.56;5217003;22;19915;-81
2023/08/02 09:09:25;;;;;;;;;;;;;;;28.17;36.26;94089.03;5189436;22;19987;-81
2023/08/02 09:11:27;;;;;;;;;;;;;;;28.03;36.51;94093.47;5188426;22;20319;-83
2023/08/02 09:13:29;;;;;;;;;;;;;;;27.98;37.29;94096.19;5216175;22;20010;-83
2023/08/02 09:15:31;;;;;;;;;;;;;;;28.22;36.29;94090.84;5189574;22;20317;-83
2023/08/02 09:17:48;;;;;;;;;;;;;;;28.27;35.60;94088.13;5216788;22;20306;-80
2023/08/02 09:19:58;;;;;;;;;;;;;;;28.41;35.82;94099.03;5216610;22;19915;-80
2023/08/02 09:22:08;;;;;;;;;;;;;;;28.70;34.89;94079.34;5189514;22;19958;-81
2023/08/02 09:24:10;;;;;;;;;;;;;;;28.99;34.57;94082.75;5216694;22;19937;-82
2023/08/02 09:26:16;;;;;;;;;;;;;;;29.23;34.70;94086.50;5189660;22;19915;-82
2023/08/02 09:28:17;;;;;;;;;;;;;;;29.37;33.92;94076.59;5189480;22;19919;-84
2023/08/02 09:30:22;;;;;;;;;;;;;;;29.28;35.48;94095.34;5215709;22;19918;-82
2023/08/02 09:32:24;;;;;;;;;;;;;;;29.25;35.06;94095.91;5189126;22;19926;-81
2023/08/02 09:34:29;;;;;;;;;;;;;;;29.54;33.85;94078.78;5188930;22;19919;-81
2023/08/02 09:36:31;;;;;;;;;;;;;;;29.61;33.39;94087.31;5189901;22;19915;-83
2023/08/02 09:38:40;;;;;;;;;;;;;;;29.68;33.16;94073.44;5217413;22;19954;-82
2023/08/02 09:40:47;;;;;;;;;;;;;;;29.87;33.64;94078.84;5167567;22;19997;-83
2023/08/02 09:43:09;;;;;;;;;;;;;;;29.94;33.01;94084.66;5194739;22;19959;-82
2023/08/02 09:45:10;;;;;;;;;;;;;;;29.88;32.23;94075.84;5216678;22;19918;-80
2023/08/02 09:47:12;;;;;;;;;;;;;;;30.16;32.47;94070.53;5218219;22;19915;-81
2023/08/02 09:49:18;;;;;;;;;;;;;;;30.10;33.62;94091.41;5190351;22;19931;-80
2023/08/02 09:51:20;;;;;;;;;;;;;;;29.84;35.06;94090.25;5190925;22;19998;-80
2023/08/02 09:53:23;;;;;;;;;;;;;;;29.92;34.27;94073.34;5217105;22;19927;-82
2023/08/02 09:55:25;;;;;;;;;;;;;;;29.68;35.20;94093.13;5190053;22;19919;-81
2023/08/02 09:57:29;;;;;;;;;;;;;;;29.20;35.69;94088.69;5217717;22;19950;-81
2023/08/02 09:59:31;;;;;;;;;;;;;;;29.29;35.93;94075.34;5192205;22;19934;-83
2023/08/02 10:01:33;;;;;;;;;;;;;;;29.49;36.14;94078.84;5190237;22;19958;-83
2023/08/02 10:03:35;;;;;;;;;;;;;;;29.37;35.36;94082.00;5219158;22;19926;-83
2023/08/02 10:05:37;;;;;;;;;;;;;;;29.19;34.95;94080.91;5219392;22;19930;-82
2023/08/02 10:07:39;;;;;;;;;;;;;;;29.23;34.42;94078.41;5220306;22;20228;-84
2023/08/02 10:09:41;;;;;;;;;;;;;;;29.38;35.13;94079.03;5190938;22;19919;-86
2023/08/02 10:12:08;;;;;;;;;;;;;;;29.23;35.75;94081.91;5191424;22;19919;-84
2023/08/02 10:14:10;;;;;;;;;;;;;;;29.08;36.62;94079.41;5217763;22;19941;-82
2023/08/02 10:16:12;;;;;;;;;;;;;;;29.22;36.10;94077.63;5216973;22;20333;-84
2023/08/02 10:18:15;;;;;;;;;;;;;;;29.43;36.11;94071.91;5217374;22;20057;-84
2023/08/02 10:20:17;;;;;;;;;;;;;;;29.26;36.12;94067.06;5219119;22;20272;-84
2023/08/02 10:22:19;;;;;;;;;;;;;;;29.04;36.39;94079.19;5190767;22;19919;-83
2023/08/02 10:24:21;;;;;;;;;;;;;;;28.86;36.75;94072.66;5191547;22;19915;-83
2023/08/02 10:26:23;;;;;;;;;;;;;;;28.84;36.71;94065.97;5192341;22;19963;-83
2023/08/02 10:28:24;;;;;;;;;;;;;;;28.77;36.56;94075.19;5220847;22;19923;-85
2023/08/02 10:30:26;;;;;;;;;;;;;;;28.83;36.76;94073.25;5192658;22;19994;-81
2023/08/02 10:32:28;;;;;;;;;;;;;;;29.25;36.02;94055.44;5199885;22;19919;-82
2023/08/02 10:34:36;;;;;;;;;;;;;;;29.62;35.67;94056.53;5217184;22;20004;-80
2023/08/02 10:36:59;;;;;;;;;;;;;;;29.77;35.51;94047.41;5190522;22;20232;-83
2023/08/02 10:39:00;;;;;;;;;;;;;;;29.53;35.59;94042.88;5216718;22;19937;-81